Time;durP1;ratioP1;P1;durP2;ratioP2;P2;SDS_P1;SDS_P2;PMS_P1;PMS_P2;Temp;Humidity;BMP_temperature;BMP_pressure;BME280_temperature;BME280_humidity;BME280_pressure;Samples;Min_cycle;Max_cycle;Signal;HPM_P1;HPM_P2
2022/12/09 00:00:32;;;;;;;38.58;19.52;;;;;;;2.28;86.05;97823.69;1725317;83;25653;-66
2022/12/09 00:02:59;;;;;;;44.63;20.48;;;;;;;2.27;86.19;97826.11;1725284;83;26963;-65
2022/12/09 00:05:25;;;;;;;40.03;20.23;;;;;;;2.27;86.27;97819.34;1725385;83;25478;-67
2022/12/09 00:07:52;;;;;;;44.38;20.55;;;;;;;2.30;86.28;97820.70;1725795;83;27471;-67
2022/12/09 00:10:18;;;;;;;38.92;20.27;;;;;;;2.34;86.46;97824.45;1725220;83;25490;-67
2022/12/09 00:12:44;;;;;;;38.92;18.77;;;;;;;2.42;86.45;97834.66;1717437;83;25426;-65
2022/12/09 00:15:10;;;;;;;36.00;18.25;;;;;;;2.46;86.18;97828.98;1702504;84;26028;-66
2022/12/09 00:17:37;;;;;;;35.45;18.30;;;;;;;2.49;85.92;97828.42;1702641;84;25613;-67
2022/12/09 00:20:05;;;;;;;45.17;21.30;;;;;;;2.48;85.95;97832.20;1703013;84;27511;-65
2022/12/09 00:22:31;;;;;;;50.92;23.38;;;;;;;2.46;86.12;97834.39;1702762;84;25677;-65
2022/12/09 00:24:57;;;;;;;47.08;23.32;;;;;;;2.43;86.07;97834.13;1702942;84;25662;-66
2022/12/09 00:27:24;;;;;;;51.80;23.10;;;;;;;2.40;86.36;97835.51;1702483;84;26088;-65
2022/12/09 00:29:50;;;;;;;49.38;21.30;;;;;;;2.36;86.28;97835.81;1702489;84;25476;-64
2022/12/09 00:32:16;;;;;;;52.30;23.15;;;;;;;2.33;86.25;97841.78;1702718;84;27417;-66
2022/12/09 00:34:42;;;;;;;43.63;21.35;;;;;;;2.33;86.41;97840.42;1702912;84;25769;-68
2022/12/09 00:37:09;;;;;;;48.42;21.30;;;;;;;2.34;86.37;97843.39;1703029;84;25694;-66
2022/12/09 00:39:35;;;;;;;41.35;19.32;;;;;;;2.34;86.31;97841.50;1702614;84;26162;-66
2022/12/09 00:42:01;;;;;;;35.92;18.37;;;;;;;2.38;86.24;97850.66;1702587;84;25596;-66
2022/12/09 00:44:28;;;;;;;37.73;19.20;;;;;;;2.39;86.08;97852.83;1703074;84;28263;-67
2022/12/09 00:47:05;;;;;;;29.15;15.88;;;;;;;2.41;86.10;97851.98;1702787;84;25481;-67
2022/12/09 00:49:31;;;;;;;27.73;12.53;;;;;;;2.42;85.98;97857.65;1702406;84;25687;-66
2022/12/09 00:51:57;;;;;;;30.88;14.38;;;;;;;2.39;85.96;97860.95;1702488;84;26046;-65
2022/12/09 00:54:23;;;;;;;26.15;13.58;;;;;;;2.37;86.11;97865.28;1703219;84;25660;-65
2022/12/09 00:56:50;;;;;;;25.62;12.50;;;;;;;2.31;86.20;97863.69;1702485;84;27479;-65
2022/12/09 00:59:16;;;;;;;28.45;13.30;;;;;;;2.26;86.32;97856.95;1702389;84;27332;-65
2022/12/09 01:01:43;;;;;;;25.43;12.73;;;;;;;2.19;86.46;97864.00;1702723;84;25574;-66
2022/12/09 01:04:09;;;;;;;39.70;17.90;;;;;;;2.14;86.80;97864.04;1702626;84;26250;-65
2022/12/09 01:06:36;;;;;;;40.80;17.92;;;;;;;2.11;86.86;97868.65;1702553;84;25625;-66
2022/12/09 01:09:02;;;;;;;31.42;14.58;;;;;;;2.10;86.96;97869.18;1702927;84;27594;-66
2022/12/09 01:11:29;;;;;;;37.25;17.57;;;;;;;2.08;87.16;97870.02;1702848;84;25745;-67
2022/12/09 01:14:00;;;;;;;30.70;14.60;;;;;;;2.08;87.42;97863.80;1702622;83;25649;-68
2022/12/09 01:16:30;;;;;;;27.02;13.32;;;;;;;2.10;87.41;97864.34;1703164;84;26660;-69
2022/12/09 01:19:00;;;;;;;33.42;15.58;;;;;;;2.08;87.40;97866.50;1703005;84;25416;-69
2022/12/09 01:21:28;;;;;;;27.75;13.08;;;;;;;2.10;87.41;97861.63;1702635;84;27454;-67
2022/12/09 01:23:54;;;;;;;32.45;15.78;;;;;;;2.07;87.41;97865.67;1702431;84;25496;-70
2022/12/09 01:26:21;;;;;;;34.35;15.40;;;;;;;2.07;87.64;97865.67;1702393;84;25676;-67
2022/12/09 01:28:51;;;;;;;35.40;16.73;;;;;;;2.04;87.55;97857.34;1702778;84;26087;-67
2022/12/09 01:31:19;;;;;;;26.50;12.55;;;;;;;1.96;87.74;97860.06;1702267;84;25667;-69
2022/12/09 01:33:46;;;;;;;16.05;8.93;;;;;;;1.93;87.81;97855.22;1703164;84;28429;-67
2022/12/09 01:36:19;;;;;;;53.15;19.95;;;;;;;1.86;88.08;97853.61;1702697;84;25658;-67
2022/12/09 01:38:47;;;;;;;38.95;16.42;;;;;;;1.83;88.09;97848.77;1703274;84;25713;-67
2022/12/09 01:41:16;;;;;;;31.80;15.93;;;;;;;1.87;88.17;97842.25;1702811;84;26196;-67
2022/12/09 01:43:44;;;;;;;25.85;11.73;;;;;;;1.87;88.19;97840.36;1702874;84;25521;-66
2022/12/09 01:46:10;;;;;;;28.80;13.15;;;;;;;1.90;88.35;97843.05;1702762;84;27442;-68
2022/12/09 01:48:42;;;;;;;30.37;13.80;;;;;;;1.89;88.24;97837.38;1702445;84;25443;-67
2022/12/09 01:51:13;;;;;;;22.20;12.07;;;;;;;1.92;88.22;97840.89;1702376;84;25703;-66
2022/12/09 01:53:42;;;;;;;;;;;;;;;1.94;88.28;97834.67;1704889;84;26021;-67
2022/12/09 01:56:13;;;;;;;27.80;12.47;;;;;;;1.93;88.40;97834.39;1702516;83;25392;-66
2022/12/09 01:58:40;;;;;;;19.98;9.93;;;;;;;1.92;88.52;97829.26;1702530;84;27445;-66
2022/12/09 02:01:06;;;;;;;17.87;9.23;;;;;;;1.91;88.57;97829.00;1702547;84;27160;-66
2022/12/09 02:03:33;;;;;;;12.75;6.55;;;;;;;1.88;88.76;97826.32;1703300;84;25412;-66
2022/12/09 02:06:00;;;;;;;16.57;8.53;;;;;;;1.81;88.95;97815.80;1702572;84;26041;-66
2022/12/09 02:08:26;;;;;;;19.32;10.10;;;;;;;1.80;88.99;97816.08;1702677;84;25686;-66
2022/12/09 02:11:26;;;;;;;23.40;12.10;;;;;;;1.79;88.93;97816.64;1702679;84;27435;-65
2022/12/09 02:14:10;;;;;;;20.27;9.58;;;;;;;1.82;88.81;97815.27;1711391;83;27259;-67
2022/12/09 02:16:53;;;;;;;15.40;9.85;;;;;;;1.83;89.06;97812.83;1721617;83;25452;-66
2022/12/09 02:19:47;;;;;;;19.62;9.08;;;;;;;1.83;89.00;97804.19;1725006;83;26025;-67
2022/12/09 02:22:19;;;;;;;21.90;10.75;;;;;;;1.81;89.19;97809.05;1725810;83;25692;-70
2022/12/09 02:25:20;;;;;;;24.57;14.20;;;;;;;1.87;89.09;97806.59;1725759;82;27412;-70
2022/12/09 02:27:51;;;;;;;15.43;8.43;;;;;;;1.93;89.01;97801.96;1725591;83;25472;-66
2022/12/09 02:30:25;;;;;;;18.15;9.58;;;;;;;1.93;88.98;97808.72;1723749;83;25637;-67
2022/12/09 02:33:14;;;;;;;18.20;10.40;;;;;;;1.91;89.01;97812.79;1725726;83;26034;-66
2022/12/09 02:35:58;;;;;;;12.82;8.10;;;;;;;1.84;89.09;97817.16;1725820;83;25711;-68
2022/12/09 02:38:32;;;;;;;22.75;11.53;;;;;;;1.78;89.36;97818.27;1725572;82;29557;-71
2022/12/09 02:41:27;;;;;;;22.35;11.70;;;;;;;1.74;89.37;97806.66;1725807;83;25439;-67
2022/12/09 02:44:02;;;;;;;25.43;12.53;;;;;;;1.78;89.39;97808.81;1725523;83;25646;-66
2022/12/09 02:46:30;;;;;;;34.95;18.32;;;;;;;1.81;89.33;97794.75;1725395;83;26035;-70
2022/12/09 02:48:58;;;;;;;31.85;16.60;;;;;;;1.86;89.26;97798.23;1725853;83;25573;-66
2022/12/09 02:51:29;;;;;;;27.82;15.28;;;;;;;1.86;89.15;97795.53;1725462;82;27597;-66
2022/12/09 02:54:04;;;;;;;32.35;16.23;;;;;;;1.88;89.14;97796.03;1725928;83;25664;-67
2022/12/09 02:56:31;;;;;;;28.10;14.00;;;;;;;1.94;89.14;97791.97;1725976;82;25589;-67
2022/12/09 02:58:58;;;;;;;26.07;14.73;;;;;;;1.97;89.04;97802.22;1725292;83;26048;-67
2022/12/09 03:01:45;;;;;;;23.77;13.75;;;;;;;1.95;88.95;97797.63;1725901;83;25454;-67
2022/12/09 03:04:18;;;;;;;29.85;14.73;;;;;;;1.93;88.98;97794.42;1648258;87;29579;-67
2022/12/09 03:06:50;;;;;;;27.10;16.27;;;;;;;1.90;89.06;97799.02;1648547;87;25777;-67
2022/12/09 03:09:21;;;;;;;26.17;13.28;;;;;;;1.88;89.16;97798.73;1631272;86;25854;-68
2022/12/09 03:11:50;;;;;;;24.77;12.10;;;;;;;1.86;89.20;97793.36;1616663;88;26908;-68
2022/12/09 03:14:30;;;;;;;23.90;13.35;;;;;;;1.84;89.21;97797.69;1628141;87;25796;-67
2022/12/09 03:17:05;;;;;;;26.73;14.30;;;;;;;1.83;89.23;97796.08;1621069;88;27897;-69
2022/12/09 03:19:45;;;;;;;21.73;11.97;;;;;;;1.85;89.19;97785.00;1619335;88;25794;-67
2022/12/09 03:22:16;;;;;;;23.25;12.03;;;;;;;1.87;89.15;97785.50;1621881;88;25742;-68
2022/12/09 03:24:45;;;;;;;;;;;;;;;1.88;89.15;97785.79;1623325;88;26000;-67
2022/12/09 03:27:16;;;;;;;20.10;11.12;;;;;;;1.88;89.04;97774.98;1612927;88;25518;-68
2022/12/09 03:29:46;;;;;;;20.80;11.18;;;;;;;1.89;89.05;97775.23;1614292;88;27535;-67
2022/12/09 03:32:16;;;;;;;23.30;11.48;;;;;;;1.90;89.10;97772.80;1613734;88;25514;-71
2022/12/09 03:34:46;;;;;;;20.48;10.72;;;;;;;1.88;89.07;97769.58;1625894;88;25716;-68
2022/12/09 03:37:16;;;;;;;22.50;11.20;;;;;;;1.84;89.14;97769.31;1630464;88;25984;-67
2022/12/09 03:39:44;;;;;;;19.32;10.25;;;;;;;1.83;89.24;97773.11;1623594;88;25704;-68
2022/12/09 03:42:21;;;;;;;19.92;10.58;;;;;;;1.82;89.43;97765.28;1645774;87;27479;-68
2022/12/09 03:44:59;;;;;;;24.43;13.85;;;;;;;1.79;89.28;97773.41;1710565;83;25484;-67
2022/12/09 03:47:26;;;;;;;21.75;11.95;;;;;;;1.79;89.24;97775.30;1710059;83;25483;-68
2022/12/09 03:49:54;;;;;;;22.00;12.10;;;;;;;1.80;89.27;97776.37;1710696;83;26014;-66
2022/12/09 03:52:26;;;;;;;20.65;10.82;;;;;;;1.82;89.39;97776.09;1710367;83;25504;-68
2022/12/09 03:55:06;;;;;;;25.40;13.08;;;;;;;1.83;89.21;97780.40;1710242;83;27376;-67
2022/12/09 03:57:37;;;;;;;19.93;11.73;;;;;;;1.86;89.18;97773.91;1695239;84;25484;-68
2022/12/09 04:00:05;;;;;;;19.17;10.88;;;;;;;1.84;89.30;97762.56;1666403;86;25588;-67
2022/12/09 04:02:31;;;;;;;22.02;11.12;;;;;;;1.90;89.07;97776.84;1695422;84;26000;-68
2022/12/09 04:04:58;;;;;;;20.40;10.18;;;;;;;1.89;89.09;97777.94;1665589;86;25698;-67
2022/12/09 04:07:24;;;;;;;20.80;11.05;;;;;;;1.88;89.01;97772.28;1695019;84;27414;-68
2022/12/09 04:09:51;;;;;;;22.00;12.33;;;;;;;1.82;89.08;97781.50;1661804;86;25682;-67
2022/12/09 04:12:17;;;;;;;23.38;11.95;;;;;;;1.79;89.15;97778.00;1695057;84;25440;-71
2022/12/09 04:14:45;;;;;;;27.40;13.80;;;;;;;1.75;89.15;97779.09;1660702;86;26092;-71
2022/12/09 04:17:11;;;;;;;22.48;12.50;;;;;;;1.73;89.19;97779.92;1688116;85;25635;-68
2022/12/09 04:19:38;;;;;;;23.77;13.58;;;;;;;1.71;89.20;97775.33;1687848;85;27412;-68
2022/12/09 04:22:04;;;;;;;23.02;11.75;;;;;;;1.73;89.17;97779.92;1687489;85;25500;-73
2022/12/09 04:24:30;;;;;;;26.07;13.83;;;;;;;1.76;89.14;97783.42;1687645;85;25589;-68
2022/12/09 04:26:57;;;;;;;22.95;13.15;;;;;;;1.78;89.16;97778.53;1687445;85;26038;-68
2022/12/09 04:29:23;;;;;;;27.13;15.30;;;;;;;1.79;89.13;97778.81;1687592;85;25621;-68
2022/12/09 04:31:49;;;;;;;35.73;20.27;;;;;;;1.81;89.13;97778.54;1687561;85;27414;-67
2022/12/09 04:34:16;;;;;;;29.60;15.75;;;;;;;1.83;89.24;97773.65;1688191;85;25641;-67
2022/12/09 04:36:55;;;;;;;24.87;13.60;;;;;;;1.83;89.17;97770.41;1687933;85;25401;-68
2022/12/09 04:39:25;;;;;;;25.12;12.58;;;;;;;1.82;89.16;97765.28;1687388;84;25710;-68
2022/12/09 04:42:00;;;;;;;23.77;12.80;;;;;;;1.77;89.12;97770.17;1688111;85;25597;-68
2022/12/09 04:44:31;;;;;;;20.65;11.78;;;;;;;1.70;89.22;97773.16;1688014;84;26362;-68
2022/12/09 04:46:58;;;;;;;27.07;13.45;;;;;;;1.66;89.20;97776.69;1687923;83;25582;-68
2022/12/09 04:49:24;;;;;;;29.10;17.10;;;;;;;1.63;89.34;97772.12;1687562;85;25663;-69
2022/12/09 04:51:51;;;;;;;28.92;15.25;;;;;;;1.67;89.45;97775.63;1687752;85;26098;-68
2022/12/09 04:54:17;;;;;;;26.48;13.80;;;;;;;1.68;89.32;97779.40;1687690;85;25432;-67
2022/12/09 04:56:44;;;;;;;23.75;12.80;;;;;;;1.71;89.27;97775.33;1687859;85;27443;-68
2022/12/09 04:59:10;;;;;;;28.73;14.30;;;;;;;1.72;89.23;97770.19;1687573;85;25685;-68
2022/12/09 05:01:36;;;;;;;21.15;10.28;;;;;;;1.75;89.31;97769.63;1687610;85;25500;-67
2022/12/09 05:04:03;;;;;;;22.82;12.88;;;;;;;1.76;89.27;97773.97;1683648;85;26063;-68
2022/12/09 05:06:29;;;;;;;25.62;13.15;;;;;;;1.73;89.32;97771.26;1687874;85;25670;-72
2022/12/09 05:08:55;;;;;;;27.87;16.42;;;;;;;1.73;89.28;97773.17;1687504;85;27395;-69
2022/12/09 05:11:22;;;;;;;25.95;13.60;;;;;;;1.70;89.40;97768.32;1687424;85;25595;-69
2022/12/09 05:13:50;;;;;;;27.65;15.20;;;;;;;1.67;89.30;97771.58;1687299;83;25587;-67
2022/12/09 05:16:19;;;;;;;27.00;14.20;;;;;;;1.64;89.37;97771.56;1685143;84;26074;-67
2022/12/09 05:18:47;;;;;;;28.92;14.45;;;;;;;1.63;89.36;97769.42;1655977;86;25448;-68
2022/12/09 05:21:18;;;;;;;28.25;14.73;;;;;;;1.65;89.36;97766.45;1685061;85;28097;-68
2022/12/09 05:23:45;;;;;;;33.45;18.65;;;;;;;1.68;89.38;97770.48;1655997;86;25999;-68
2022/12/09 05:26:16;;;;;;;29.45;15.65;;;;;;;1.70;89.33;97766.41;1684764;85;25649;-68
2022/12/09 05:28:42;;;;;;;33.58;18.50;;;;;;;1.72;89.29;97769.66;1656113;86;31831;-71
2022/12/09 05:31:16;;;;;;;24.18;14.38;;;;;;;1.75;89.36;97769.09;1684787;85;25421;-72
2022/12/09 05:33:44;;;;;;;37.35;19.57;;;;;;;1.76;89.33;97768.56;1655892;86;27788;-67
2022/12/09 05:36:12;;;;;;;31.97;16.57;;;;;;;1.73;89.26;97773.95;1684676;85;25655;-70
2022/12/09 05:38:39;;;;;;;23.95;13.90;;;;;;;1.69;89.26;97776.14;1656181;86;25773;-70
2022/12/09 05:41:07;;;;;;;25.70;14.60;;;;;;;1.67;89.40;97781.81;1684761;84;26058;-69
2022/12/09 05:43:35;;;;;;;32.70;17.55;;;;;;;1.63;89.30;97785.63;1655971;86;25656;-67
2022/12/09 05:46:02;;;;;;;32.17;17.35;;;;;;;1.64;89.45;97787.77;1684854;85;27757;-68
2022/12/09 05:48:29;;;;;;;30.70;14.58;;;;;;;1.67;89.35;97793.97;1655593;86;27275;-68
2022/12/09 05:51:07;;;;;;;31.20;16.27;;;;;;;1.68;89.27;97795.61;1684836;85;25754;-70
2022/12/09 05:53:34;;;;;;;29.82;15.53;;;;;;;1.69;89.33;97786.94;1655574;86;26139;-67
2022/12/09 05:56:00;;;;;;;30.75;16.87;;;;;;;1.70;89.19;97783.97;1685372;84;25587;-67
2022/12/09 05:58:27;;;;;;;35.25;16.20;;;;;;;1.72;89.38;97780.98;1655626;86;27458;-68
2022/12/09 06:00:56;;;;;;;32.38;16.70;;;;;;;1.76;89.62;97784.77;1685181;85;25707;-68
2022/12/09 06:03:23;;;;;;;31.97;17.12;;;;;;;1.77;89.59;97780.16;1655827;86;25664;-71
2022/12/09 06:05:50;;;;;;;46.92;19.82;;;;;;;1.79;89.54;97784.22;1684720;84;25964;-71
2022/12/09 06:08:17;;;;;;;48.83;20.02;;;;;;;1.72;88.85;97780.98;1685034;85;25412;-69
2022/12/09 06:10:44;;;;;;;39.25;16.67;;;;;;;1.67;89.17;97780.47;1684800;84;27342;-67
2022/12/09 06:13:10;;;;;;;69.87;24.63;;;;;;;1.59;89.30;97776.47;1655776;86;25505;-68
2022/12/09 06:15:37;;;;;;;53.00;19.12;;;;;;;1.59;89.36;97766.20;1684702;83;25481;-68
2022/12/09 06:18:04;;;;;;;58.92;20.85;;;;;;;1.56;89.42;97775.67;1685017;84;26615;-74
2022/12/09 06:20:30;;;;;;;145.02;36.53;;;;;;;1.60;89.41;97775.37;1655622;86;25641;-68
2022/12/09 06:22:57;;;;;;;193.72;47.50;;;;;;;1.65;89.57;97771.85;1684762;85;27448;-69
2022/12/09 06:25:24;;;;;;;190.20;44.63;;;;;;;1.66;89.26;97768.05;1655869;86;25688;-74
2022/12/09 06:27:52;;;;;;;88.00;27.58;;;;;;;1.72;89.35;97764.25;1684798;85;25696;-68
2022/12/09 06:30:19;;;;;;;90.03;27.98;;;;;;;1.73;89.31;97761.80;1655633;86;26924;-68
2022/12/09 06:32:46;;;;;;;68.80;26.90;;;;;;;1.75;89.27;97754.23;1685050;85;25421;-70
2022/12/09 06:35:12;;;;;;;60.28;28.20;;;;;;;1.68;88.90;97755.09;1655561;86;27501;-67
2022/12/09 06:37:39;;;;;;;66.72;35.13;;;;;;;1.58;88.75;97755.94;1684694;85;25657;-73
2022/12/09 06:40:07;;;;;;;58.60;27.67;;;;;;;1.51;89.06;97751.38;1655617;86;25505;-68
2022/12/09 06:42:34;;;;;;;48.28;25.08;;;;;;;1.50;89.07;97758.66;1685041;85;26028;-68
2022/12/09 06:45:00;;;;;;;48.35;23.40;;;;;;;1.43;89.07;97755.45;1656125;86;25898;-69
2022/12/09 06:47:26;;;;;;;34.92;19.82;;;;;;;1.45;89.37;97759.23;1684226;85;27563;-71
2022/12/09 06:49:52;;;;;;;30.12;16.95;;;;;;;1.51;89.60;97760.83;1655599;86;25631;-68
2022/12/09 06:52:19;;;;;;;34.83;18.07;;;;;;;1.60;89.83;97751.08;1685277;84;25416;-68
2022/12/09 06:54:45;;;;;;;35.13;18.92;;;;;;;1.67;89.75;97745.35;1655476;86;28165;-69
2022/12/09 06:57:11;;;;;;;37.13;18.30;;;;;;;1.69;89.55;97734.27;1684941;85;25659;-69
2022/12/09 06:59:38;;;;;;;36.23;18.25;;;;;;;1.71;89.63;97740.22;1655735;86;27475;-68
2022/12/09 07:02:04;;;;;;;38.88;20.52;;;;;;;1.72;89.70;97731.84;1685048;85;25603;-70
2022/12/09 07:04:31;;;;;;;47.95;19.00;;;;;;;1.69;89.55;97725.64;1655665;86;25707;-68
2022/12/09 07:06:57;;;;;;;55.52;25.17;;;;;;;1.65;89.63;97735.92;1685224;85;26004;-69
2022/12/09 07:09:23;;;;;;;48.17;23.57;;;;;;;1.63;89.86;97742.95;1656125;86;25620;-71
2022/12/09 07:11:50;;;;;;;40.85;20.80;;;;;;;1.66;89.88;97736.17;1685042;85;27314;-70
2022/12/09 07:14:17;;;;;;;51.10;24.75;;;;;;;1.67;89.83;97736.47;1656096;86;25647;-72
2022/12/09 07:16:45;;;;;;;47.00;22.50;;;;;;;1.71;89.90;97734.28;1702950;84;25432;-74
2022/12/09 07:19:17;;;;;;;39.95;21.93;;;;;;;1.74;89.70;97743.18;1702642;84;26024;-74
2022/12/09 07:21:44;;;;;;;40.67;20.65;;;;;;;1.79;89.74;97740.17;1702643;84;25483;-69
2022/12/09 07:24:15;;;;;;;40.92;20.30;;;;;;;1.81;89.66;97738.80;1702563;84;27453;-73
2022/12/09 07:26:39;;;;;;;35.13;17.82;;;;;;;1.83;89.68;97734.47;1701544;84;25802;-69
2022/12/09 07:29:06;;;;;;;32.70;15.98;;;;;;;1.81;89.65;97738.80;1702994;84;25605;-68
2022/12/09 07:31:34;;;;;;;34.55;18.30;;;;;;;1.81;89.72;97733.97;1702815;84;26025;-67
2022/12/09 07:34:02;;;;;;;37.17;18.92;;;;;;;1.79;89.73;97739.64;1702948;84;25615;-73
2022/12/09 07:36:31;;;;;;;38.15;18.30;;;;;;;1.79;89.84;97737.48;1703018;84;27514;-70
2022/12/09 07:39:02;;;;;;;46.80;26.12;;;;;;;1.76;89.72;97742.91;1702939;84;25417;-70
2022/12/09 07:41:28;;;;;;;;;;;;;;;1.78;89.72;97738.01;1705601;84;25606;-72
2022/12/09 07:43:56;;;;;;;38.88;18.60;;;;;;;1.80;89.71;97732.33;1702698;84;26131;-68
2022/12/09 07:46:27;;;;;;;34.50;18.20;;;;;;;1.83;89.75;97746.63;1702630;84;25692;-67
2022/12/09 07:48:54;;;;;;;;;;;;;;;1.84;89.66;97741.52;1705275;84;27525;-67
2022/12/09 07:51:21;;;;;;;35.80;17.52;;;;;;;1.87;89.74;97739.58;1702690;83;25658;-68
2022/12/09 07:53:48;;;;;;;40.43;19.75;;;;;;;1.92;89.77;97747.66;1698865;84;25758;-71
2022/12/09 07:56:16;;;;;;;35.38;18.12;;;;;;;2.00;89.74;97743.56;1702956;84;26498;-74
2022/12/09 07:58:46;;;;;;;38.23;18.17;;;;;;;2.04;89.63;97750.02;1702795;84;25617;-74
2022/12/09 08:01:19;;;;;;;33.83;17.90;;;;;;;2.08;89.51;97748.39;1702869;84;27637;-74
2022/12/09 08:03:47;;;;;;;38.15;19.32;;;;;;;2.12;89.62;97760.25;1702771;84;25630;-72
2022/12/09 08:06:17;;;;;;;36.93;18.62;;;;;;;2.17;89.70;97755.36;1702864;84;25452;-73
2022/12/09 08:08:44;;;;;;;37.23;19.17;;;;;;;2.20;89.62;97752.63;1703017;84;26709;-74
2022/12/09 08:11:24;;;;;;;40.85;20.40;;;;;;;2.22;89.60;97757.22;1702980;84;25470;-72
2022/12/09 08:13:52;;;;;;;44.40;22.07;;;;;;;2.24;89.70;97763.95;1701340;84;27479;-68
2022/12/09 08:16:20;;;;;;;45.85;21.70;;;;;;;2.28;89.51;97765.56;1709655;83;25840;-71
2022/12/09 08:18:48;;;;;;;49.83;23.60;;;;;;;2.28;89.53;97761.50;1712534;83;25668;-71
2022/12/09 08:21:19;;;;;;;39.55;20.10;;;;;;;2.37;89.96;97763.06;1712789;83;26112;-72
2022/12/09 08:23:47;;;;;;;37.30;20.02;;;;;;;2.49;89.98;97762.16;1734587;82;25469;-73
2022/12/09 08:26:17;;;;;;;92.85;31.97;;;;;;;2.64;89.83;97761.76;1734917;82;27529;-69
2022/12/09 08:28:43;;;;;;;61.28;25.40;;;;;;;2.73;89.17;97753.83;1735054;82;25470;-74
2022/12/09 08:31:14;;;;;;;40.63;19.57;;;;;;;2.86;89.30;97751.84;1734758;82;25426;-71
2022/12/09 08:33:41;;;;;;;44.93;21.73;;;;;;;2.93;88.77;97749.34;1735445;82;26016;-68
2022/12/09 08:36:21;;;;;;;110.55;38.98;;;;;;;2.95;88.49;97749.31;1734882;82;25498;-68
2022/12/09 08:38:48;;;;;;;60.38;25.50;;;;;;;2.98;88.33;97751.98;1733882;82;27320;-73
2022/12/09 08:41:21;;;;;;;83.60;31.82;;;;;;;3.03;87.96;97747.89;1734582;82;25682;-71
2022/12/09 08:43:49;;;;;;;230.75;71.80;;;;;;;3.07;87.74;97748.92;1734192;82;25525;-71
2022/12/09 08:46:15;;;;;;;151.22;48.08;;;;;;;3.08;87.35;97751.09;1734908;82;26040;-69
2022/12/09 08:48:43;;;;;;;168.15;56.40;;;;;;;3.08;86.98;97754.58;1726134;82;26509;-72
2022/12/09 08:51:10;;;;;;;44.67;20.82;;;;;;;3.06;86.28;97747.84;1695024;84;27506;-68
2022/12/09 08:53:38;;;;;;;65.97;26.75;;;;;;;3.04;86.27;97743.26;1682508;85;25503;-72
2022/12/09 08:56:11;;;;;;;82.47;32.93;;;;;;;3.12;86.44;97744.00;1672977;85;25720;-73
2022/12/09 08:58:38;;;;;;;52.25;21.45;;;;;;;3.22;86.55;97743.06;1672539;85;25630;-72
2022/12/09 09:01:05;;;;;;;27.80;14.40;;;;;;;3.31;86.28;97741.91;1672847;85;25450;-68
2022/12/09 09:03:32;;;;;;;41.05;19.50;;;;;;;3.38;85.55;97741.00;1673166;85;27396;-72
2022/12/09 09:06:06;;;;;;;40.25;18.87;;;;;;;3.46;85.38;97743.63;1672962;85;25633;-70
2022/12/09 09:08:40;;;;;;;33.67;16.82;;;;;;;3.58;85.73;97744.02;1672977;85;25698;-69
2022/12/09 09:11:17;;;;;;;34.15;15.75;;;;;;;3.68;85.27;97746.34;1672950;85;26269;-69
2022/12/09 09:13:47;;;;;;;32.75;16.32;;;;;;;3.75;85.13;97749.50;1673190;85;25607;-74
2022/12/09 09:16:21;;;;;;;21.55;11.25;;;;;;;3.78;84.41;97742.14;1666112;85;28469;-74
2022/12/09 09:18:49;;;;;;;23.12;12.95;;;;;;;3.78;83.71;97740.79;1655998;86;25819;-75
2022/12/09 09:21:19;;;;;;;27.42;14.43;;;;;;;3.80;83.33;97741.28;1656103;86;25675;-71
2022/12/09 09:23:46;;;;;;;30.95;16.70;;;;;;;3.84;83.48;97730.68;1656055;86;27673;-75
2022/12/09 09:26:16;;;;;;;44.50;19.92;;;;;;;3.89;83.93;97727.91;1655653;86;25738;-75
2022/12/09 09:28:44;;;;;;;37.20;18.70;;;;;;;3.86;83.55;97728.49;1655901;86;27569;-69
2022/12/09 09:31:15;;;;;;;37.98;18.92;;;;;;;3.71;84.58;97722.73;1655793;86;25756;-71
2022/12/09 09:33:42;;;;;;;36.08;17.07;;;;;;;3.63;84.70;97715.49;1656181;86;25450;-73
2022/12/09 09:36:17;;;;;;;33.75;17.10;;;;;;;3.46;83.57;97722.77;1655946;86;25946;-69
2022/12/09 09:38:44;;;;;;;40.33;18.82;;;;;;;3.37;84.66;97719.88;1655712;86;25475;-76
2022/12/09 09:41:37;;;;;;;35.45;19.12;;;;;;;3.37;85.04;97711.75;1655655;86;27344;-68
2022/12/09 09:44:17;;;;;;;31.52;15.88;;;;;;;3.45;85.04;97706.24;1654977;86;25745;-70
2022/12/09 09:46:47;;;;;;;32.15;16.50;;;;;;;3.46;84.44;97705.70;1655765;86;25662;-74
2022/12/09 09:49:40;;;;;;;27.98;15.28;;;;;;;3.56;85.05;97703.39;1656414;86;26048;-76
2022/12/09 09:52:15;;;;;;;34.30;17.20;;;;;;;3.63;84.83;97699.80;1654126;86;25896;-72
2022/12/09 09:54:41;;;;;;;28.70;15.53;;;;;;;3.56;84.56;97712.88;1629304;86;26280;-76
2022/12/09 09:57:25;;;;;;;32.35;17.77;;;;;;;3.61;84.72;97708.22;1655839;86;26456;-71
2022/12/09 10:00:24;;;;;;;36.10;16.52;;;;;;;3.61;83.55;97711.47;1654435;86;25639;-74
2022/12/09 10:03:05;;;;;;;33.90;15.83;;;;;;;3.56;83.76;97716.41;1655634;86;26096;-70
2022/12/09 10:05:55;;;;;;;29.30;17.10;;;;;;;3.60;84.18;97707.16;1655718;86;25686;-76
2022/12/09 10:08:54;;;;;;;33.20;16.17;;;;;;;3.64;84.06;97700.86;1655780;86;27490;-69
2022/12/09 10:11:26;;;;;;;27.58;14.07;;;;;;;3.71;82.92;97698.34;1655205;86;25782;-75
2022/12/09 10:14:18;;;;;;;24.80;13.65;;;;;;;3.66;82.59;97685.67;1655976;86;25626;-77
2022/12/09 10:17:11;;;;;;;31.70;16.40;;;;;;;3.58;82.66;97686.31;1646679;86;25750;-69
2022/12/09 10:19:45;;;;;;;28.52;14.03;;;;;;;3.53;83.16;97689.08;1676494;85;25578;-71
2022/12/09 10:22:22;;;;;;;44.85;21.07;;;;;;;3.55;83.22;97689.06;1708092;84;27385;-68
2022/12/09 10:24:54;;;;;;;27.32;14.10;;;;;;;3.51;83.64;97679.89;1707381;84;25801;-76
2022/12/09 10:27:43;;;;;;;59.98;27.98;;;;;;;3.50;83.25;97679.10;1708409;83;26018;-73
2022/12/09 10:30:13;;;;;;;47.00;23.95;;;;;;;3.45;83.54;97685.14;1708204;84;25981;-69
2022/12/09 10:32:40;;;;;;;47.88;24.35;;;;;;;3.41;83.68;97685.44;1708237;83;25694;-74
2022/12/09 10:35:19;;;;;;;57.00;25.90;;;;;;;3.39;83.63;97686.55;1708348;83;27414;-74
2022/12/09 10:37:50;;;;;;;38.85;20.90;;;;;;;3.45;84.11;97685.14;1707931;83;25688;-77
2022/12/09 10:40:37;;;;;;;137.70;87.25;;;;;;;3.52;83.32;97684.23;1708309;84;25625;-72
2022/12/09 10:43:43;;;;;;;38.75;20.10;;;;;;;3.55;82.97;97685.00;1707950;83;28193;-75
2022/12/09 10:46:22;;;;;;;43.13;22.37;;;;;;;3.64;83.14;97690.56;1707122;84;25475;-68
2022/12/09 10:48:54;;;;;;;33.18;17.30;;;;;;;3.72;81.89;97693.17;1704127;84;28188;-71
2022/12/09 10:51:29;;;;;;;83.67;45.03;;;;;;;3.62;81.41;97684.63;1708021;84;25665;-74
2022/12/09 10:54:13;;;;;;;46.85;20.80;;;;;;;3.57;81.17;97685.50;1708094;84;25656;-78
2022/12/09 10:57:01;;;;;;;76.70;43.20;;;;;;;3.57;81.79;97676.58;1707893;84;26003;-75
2022/12/09 10:59:30;;;;;;;38.25;19.60;;;;;;;3.53;82.12;97662.80;1707938;84;25678;-73
2022/12/09 11:02:02;;;;;;;38.05;20.27;;;;;;;3.49;82.07;97670.70;1708283;83;27379;-76
2022/12/09 11:04:39;;;;;;;43.20;22.52;;;;;;;3.53;82.55;97664.70;1708054;84;25611;-74
2022/12/09 11:07:16;;;;;;;64.80;35.52;;;;;;;3.54;82.58;97656.84;1707900;83;25498;-73
2022/12/09 11:09:51;;;;;;;49.90;25.40;;;;;;;3.60;83.17;97654.33;1708360;84;26017;-77
2022/12/09 11:12:40;;;;;;;50.83;25.97;;;;;;;3.54;82.77;97646.02;1702325;84;25633;-76
2022/12/09 11:15:28;;;;;;;49.23;25.82;;;;;;;3.53;83.32;97638.96;1706981;84;27045;-68
2022/12/09 11:18:02;;;;;;;;;;;;;;;3.57;83.15;97630.53;1705349;83;25768;-75
2022/12/09 11:20:32;;;;;;;103.30;35.00;;;;;;;3.57;81.95;97621.83;1702712;84;25425;-70
2022/12/09 11:23:07;;;;;;;108.55;40.12;;;;;;;3.56;81.57;97614.00;1702930;83;26685;-73
2022/12/09 11:25:36;;;;;;;39.53;18.70;;;;;;;3.62;82.29;97608.22;1702871;84;25668;-74
2022/12/09 11:28:16;;;;;;;49.55;22.30;;;;;;;3.73;81.22;97615.66;1702835;83;28199;-74
2022/12/09 11:30:59;;;;;;;90.85;34.67;;;;;;;3.61;81.29;97616.64;1703076;84;33843;-73
2022/12/09 11:33:33;;;;;;;45.00;19.60;;;;;;;3.57;82.56;97620.48;1702527;83;25449;-67
2022/12/09 11:36:09;;;;;;;97.55;37.85;;;;;;;3.59;82.53;97615.58;1702571;83;26075;-74
2022/12/09 11:38:42;;;;;;;92.10;36.42;;;;;;;3.57;82.78;97602.08;1700495;84;25692;-76
2022/12/09 11:44:23;;;;;;;42.98;20.65;;;;;;;3.46;82.54;97586.52;1699359;84;25903;-72
2022/12/09 11:47:12;;;;;;;108.07;35.25;;;;;;;3.43;83.09;97581.16;1702641;84;25495;-75